Time;durP1;ratioP1;P1;durP2;ratioP2;P2;SDS_P1;SDS_P2;PMS_P1;PMS_P2;Temp;Humidity;BMP_temperature;BMP_pressure;BME280_temperature;BME280_humidity;BME280_pressure;Samples;Min_cycle;Max_cycle;Signal;HPM_P1;HPM_P2
2023/04/17 00:00:05;;;;;;;0.95;0.95;;;10.50;99.90;;;;;;5138573;27;20219;-80
2023/04/17 00:02:31;;;;;;;1.05;1.05;;;10.50;99.90;;;;;;5129740;27;20252;-79
2023/04/17 00:04:59;;;;;;;1.83;1.42;;;10.40;99.90;;;;;;5138517;27;20275;-80
2023/04/17 00:07:27;;;;;;;1.55;1.45;;;10.40;99.90;;;;;;5129355;27;20284;-79
2023/04/17 00:09:54;;;;;;;0.50;0.45;;;10.40;99.90;;;;;;5132757;27;20284;-80
2023/04/17 00:12:20;;;;;;;0.50;0.40;;;10.30;99.90;;;;;;5128935;27;20199;-79
2023/04/17 00:14:47;;;;;;;1.40;1.30;;;10.30;99.90;;;;;;5137567;27;20184;-80
2023/04/17 00:17:14;;;;;;;0.50;0.40;;;10.20;99.90;;;;;;5137272;27;20220;-80
2023/04/17 00:19:41;;;;;;;1.02;1.02;;;10.10;99.90;;;;;;5117611;27;20232;-80
2023/04/17 00:22:09;;;;;;;0.50;0.40;;;10.10;99.90;;;;;;5117303;28;20271;-80
2023/04/17 00:24:36;;;;;;;0.50;0.40;;;10.10;99.90;;;;;;5117452;27;20196;-80
2023/04/17 00:27:02;;;;;;;0.50;0.40;;;10.00;99.90;;;;;;5116693;28;20711;-80
2023/04/17 00:29:31;;;;;;;0.90;0.90;;;10.00;99.90;;;;;;5117443;27;20291;-80
2023/04/17 00:31:58;;;;;;;0.50;0.40;;;10.10;99.90;;;;;;5116820;28;20189;-80
2023/04/17 00:34:25;;;;;;;0.50;0.40;;;10.20;99.90;;;;;;5116586;28;20675;-76
2023/04/17 00:36:52;;;;;;;0.50;0.40;;;10.10;99.90;;;;;;5116525;28;20188;-80
2023/04/17 00:39:20;;;;;;;1.15;1.05;;;10.10;99.90;;;;;;5116947;28;20212;-80
2023/04/17 00:41:47;;;;;;;0.50;0.40;;;10.20;99.90;;;;;;5108799;28;20215;-80
2023/04/17 00:44:13;;;;;;;0.80;0.80;;;10.10;99.90;;;;;;5116503;28;20667;-80
2023/04/17 00:46:41;;;;;;;0.50;0.40;;;10.20;99.90;;;;;;5115898;27;20220;-79
2023/04/17 00:49:08;;;;;;;2.10;2.00;;;10.20;99.90;;;;;;5117349;28;20184;-80
2023/04/17 00:51:35;;;;;;;0.50;0.40;;;10.30;99.90;;;;;;5125215;27;20369;-80
2023/04/17 00:54:02;;;;;;;0.50;0.40;;;10.30;99.90;;;;;;5116451;28;20730;-80
2023/04/17 00:56:30;;;;;;;0.93;0.93;;;10.30;99.90;;;;;;5116084;28;20210;-76
2023/04/17 00:58:58;;;;;;;0.63;0.63;;;10.30;99.90;;;;;;5130092;27;20211;-80
2023/04/17 01:01:25;;;;;;;0.82;0.82;;;10.30;99.90;;;;;;5135109;27;20810;-79
2023/04/17 01:03:53;;;;;;;1.20;1.10;;;10.30;99.90;;;;;;5116747;28;20256;-80
2023/04/17 01:06:20;;;;;;;0.50;0.50;;;10.20;99.90;;;;;;5115987;28;20197;-80
2023/04/17 01:08:47;;;;;;;0.70;0.70;;;10.20;99.90;;;;;;5107817;28;20185;-80
2023/04/17 01:11:14;;;;;;;0.60;0.60;;;10.20;99.90;;;;;;5123493;27;20219;-80
2023/04/17 01:13:48;;;;;;;0.50;0.40;;;10.30;99.90;;;;;;5139783;27;20300;-80
2023/04/17 01:16:15;;;;;;;0.50;0.40;;;10.30;99.90;;;;;;5139658;27;20187;-80
2023/04/17 01:18:42;;;;;;;0.50;0.40;;;10.30;99.90;;;;;;5137089;27;20214;-80
2023/04/17 01:21:09;;;;;;;3.70;3.50;;;10.20;99.90;;;;;;5138172;27;20639;-80
2023/04/17 01:23:47;;;;;;;0.50;0.40;;;10.20;99.90;;;;;;5135569;27;20192;-80
2023/04/17 01:26:19;;;;;;;0.50;0.40;;;10.20;99.90;;;;;;5132930;27;20231;-80
2023/04/17 01:28:51;;;;;;;0.50;0.40;;;10.20;99.90;;;;;;5120897;27;20665;-80
2023/04/17 01:31:18;;;;;;;4.35;4.15;;;10.20;99.90;;;;;;5123560;27;20247;-80
2023/04/17 01:33:44;;;;;;;0.50;0.40;;;10.20;99.90;;;;;;5126411;27;20188;-80
2023/04/17 01:36:11;;;;;;;3.50;3.30;;;10.20;99.90;;;;;;5116863;28;20243;-80
2023/04/17 01:38:39;;;;;;;0.60;0.60;;;10.20;99.90;;;;;;5115628;28;20213;-80
2023/04/17 01:41:09;;;;;;;1.55;1.45;;;10.20;99.90;;;;;;5115022;28;20210;-79
2023/04/17 01:43:39;;;;;;;3.42;2.60;;;10.20;99.90;;;;;;5134517;27;20692;-80
2023/04/17 01:46:06;;;;;;;3.00;2.45;;;10.20;99.90;;;;;;5129548;27;20193;-79
2023/04/17 01:48:33;;;;;;;0.85;0.85;;;10.20;99.90;;;;;;5124899;27;20184;-76
2023/04/17 01:51:00;;;;;;;0.70;0.70;;;10.10;99.90;;;;;;5136147;27;20214;-80
2023/04/17 01:53:27;;;;;;;2.97;0.80;;;10.20;99.90;;;;;;5135836;27;20192;-79
2023/04/17 01:55:54;;;;;;;0.50;0.40;;;10.20;99.90;;;;;;5136146;27;20210;-79
2023/04/17 01:58:21;;;;;;;0.50;0.40;;;10.10;99.90;;;;;;5135434;27;20264;-80
2023/04/17 02:00:50;;;;;;;0.52;0.50;;;10.10;99.90;;;;;;5135527;27;20243;-79
2023/04/17 02:03:17;;;;;;;0.50;0.40;;;10.10;99.90;;;;;;5135956;27;20204;-80
2023/04/17 02:05:46;;;;;;;0.50;0.40;;;10.10;99.90;;;;;;5135721;27;20206;-79
2023/04/17 02:08:13;;;;;;;0.50;0.40;;;10.10;99.90;;;;;;5134961;27;20229;-80
2023/04/17 02:10:41;;;;;;;0.50;0.40;;;10.10;99.90;;;;;;5135614;27;20216;-80
2023/04/17 02:13:08;;;;;;;1.65;1.55;;;10.10;99.90;;;;;;5135783;27;20192;-80
2023/04/17 02:15:35;;;;;;;2.80;1.58;;;10.10;99.90;;;;;;5126533;28;20200;-80
2023/04/17 02:18:05;;;;;;;1.20;1.10;;;10.00;99.90;;;;;;5135386;27;20211;-79
2023/04/17 02:20:31;;;;;;;1.30;1.20;;;10.00;99.90;;;;;;5135165;28;20212;-80
2023/04/17 02:22:58;;;;;;;0.50;0.40;;;9.90;99.90;;;;;;5135508;28;20188;-80
2023/04/17 02:25:25;;;;;;;0.80;0.75;;;9.80;99.90;;;;;;5135487;28;20192;-79
2023/04/17 02:27:53;;;;;;;0.77;0.77;;;9.80;99.90;;;;;;5135454;28;20255;-80
2023/04/17 02:30:20;;;;;;;0.50;0.40;;;9.80;99.90;;;;;;5135333;27;20217;-77
2023/04/17 02:32:47;;;;;;;0.50;0.40;;;9.80;99.90;;;;;;5115636;28;20634;-80
2023/04/17 02:35:15;;;;;;;0.50;0.40;;;9.70;99.90;;;;;;5121984;28;20196;-79
2023/04/17 02:37:42;;;;;;;1.15;1.15;;;9.70;99.90;;;;;;5135061;28;20195;-80
2023/04/17 02:40:09;;;;;;;0.95;0.95;;;9.70;99.90;;;;;;5135153;28;20203;-80
2023/04/17 02:42:36;;;;;;;0.50;0.40;;;9.70;99.90;;;;;;5133411;28;20195;-80
2023/04/17 02:45:03;;;;;;;1.00;1.00;;;9.70;99.90;;;;;;5119588;28;20275;-78
2023/04/17 02:47:30;;;;;;;1.13;1.02;;;9.70;99.90;;;;;;5134816;28;20249;-76
2023/04/17 02:49:59;;;;;;;1.25;1.15;;;9.70;99.90;;;;;;5134758;28;20704;-80
2023/04/17 02:52:27;;;;;;;0.50;0.40;;;9.60;99.90;;;;;;5118092;28;20204;-79
2023/04/17 02:54:55;;;;;;;0.50;0.50;;;9.60;99.90;;;;;;5118493;28;20200;-80
2023/04/17 02:57:22;;;;;;;0.75;0.75;;;9.60;99.90;;;;;;5135236;27;20248;-80
2023/04/17 02:59:49;;;;;;;1.70;1.17;;;9.70;99.90;;;;;;5123633;27;20658;-80
2023/04/17 03:02:20;;;;;;;0.50;0.30;;;9.70;99.90;;;;;;5114571;28;20280;-80
2023/04/17 03:04:47;;;;;;;0.50;0.40;;;9.80;99.90;;;;;;5114740;28;20271;-80
2023/04/17 03:07:17;;;;;;;1.08;1.08;;;9.80;99.90;;;;;;5122816;28;20227;-80
2023/04/17 03:09:45;;;;;;;0.50;0.40;;;9.80;99.90;;;;;;5114321;28;20248;-80
2023/04/17 03:12:12;;;;;;;0.50;0.50;;;9.90;99.90;;;;;;5115359;28;20283;-80
2023/04/17 03:14:39;;;;;;;0.50;0.40;;;9.80;99.90;;;;;;5134381;27;20214;-79
2023/04/17 03:17:06;;;;;;;0.50;0.40;;;9.80;99.90;;;;;;5135725;28;20275;-80
2023/04/17 03:19:33;;;;;;;2.35;1.88;;;9.80;99.90;;;;;;5135599;28;20212;-80
2023/04/17 03:22:00;;;;;;;0.50;0.40;;;9.80;99.90;;;;;;5136218;28;20192;-79
2023/04/17 03:24:27;;;;;;;0.50;0.40;;;9.70;99.90;;;;;;5135131;27;20188;-80
2023/04/17 03:26:56;;;;;;;0.63;0.63;;;9.70;99.90;;;;;;5108928;28;20279;-80
2023/04/17 03:29:23;;;;;;;0.50;0.40;;;9.70;99.90;;;;;;5117814;28;20189;-79
2023/04/17 03:31:50;;;;;;;2.05;1.30;;;9.70;99.90;;;;;;5118429;27;20195;-80
2023/04/17 03:34:17;;;;;;;0.50;0.40;;;9.70;99.90;;;;;;5118175;28;20246;-81
2023/04/17 03:36:44;;;;;;;0.50;0.40;;;9.60;99.90;;;;;;5118084;28;20203;-80
2023/04/17 03:39:11;;;;;;;0.50;0.50;;;9.70;99.90;;;;;;5124518;27;20207;-81
2023/04/17 03:41:38;;;;;;;0.50;0.40;;;9.70;99.90;;;;;;5137803;27;20214;-80
2023/04/17 03:44:07;;;;;;;7.70;1.13;;;9.70;99.90;;;;;;5117933;28;20210;-80
2023/04/17 03:46:34;;;;;;;0.50;0.40;;;9.80;99.90;;;;;;5117050;28;20199;-80
2023/04/17 03:49:01;;;;;;;1.55;1.45;;;9.70;99.90;;;;;;5117154;28;20272;-80
2023/04/17 03:51:28;;;;;;;0.80;0.80;;;9.80;99.90;;;;;;5117301;28;20240;-80
2023/04/17 03:53:55;;;;;;;0.50;0.40;;;9.70;99.90;;;;;;5121080;27;20309;-80
2023/04/17 03:56:21;;;;;;;0.50;0.40;;;9.70;99.90;;;;;;5137654;27;20651;-79
2023/04/17 03:58:48;;;;;;;0.73;0.73;;;9.70;99.90;;;;;;5137484;27;20552;-79
2023/04/17 04:01:17;;;;;;;0.50;0.43;;;9.70;99.90;;;;;;5137959;27;20243;-79
2023/04/17 04:03:44;;;;;;;0.82;0.77;;;9.80;99.90;;;;;;5127565;27;20224;-80
2023/04/17 04:06:11;;;;;;;0.50;0.40;;;9.80;99.90;;;;;;5108377;28;20611;-79
2023/04/17 04:08:37;;;;;;;0.50;0.40;;;9.80;99.90;;;;;;5117000;28;20199;-80
2023/04/17 04:11:04;;;;;;;0.50;0.40;;;9.70;99.90;;;;;;5116460;27;20212;-80
2023/04/17 04:13:32;;;;;;;0.75;0.75;;;9.80;99.90;;;;;;5116859;28;20196;-81
2023/04/17 04:15:59;;;;;;;0.50;0.40;;;9.70;99.90;;;;;;5132980;27;20223;-80
2023/04/17 04:18:27;;;;;;;0.50;0.40;;;9.70;99.90;;;;;;5121279;27;20196;-80
2023/04/17 04:20:54;;;;;;;0.50;0.40;;;9.70;99.90;;;;;;5136054;27;20314;-80
2023/04/17 04:23:23;;;;;;;0.50;0.50;;;9.70;99.90;;;;;;5137097;27;20188;-79
2023/04/17 04:25:50;;;;;;;0.50;0.40;;;9.70;99.90;;;;;;5129722;27;20225;-80
2023/04/17 04:28:17;;;;;;;0.50;0.40;;;9.80;99.90;;;;;;5116420;27;20199;-80
2023/04/17 04:30:49;;;;;;;1.13;1.05;;;9.80;99.90;;;;;;5134312;27;20587;-81
2023/04/17 04:33:18;;;;;;;0.50;0.40;;;9.80;99.90;;;;;;5136428;27;20562;-80
2023/04/17 04:35:47;;;;;;;1.63;1.52;;;9.80;99.90;;;;;;5135917;27;20188;-79
2023/04/17 04:38:14;;;;;;;1.58;1.48;;;9.80;99.90;;;;;;5130278;27;20196;-82
2023/04/17 04:40:42;;;;;;;0.50;0.40;;;9.70;99.90;;;;;;5114798;28;20223;-81
2023/04/17 04:43:09;;;;;;;1.02;1.02;;;9.70;99.90;;;;;;5115606;28;20193;-81
2023/04/17 04:45:36;;;;;;;0.50;0.40;;;9.60;99.90;;;;;;5115019;28;20199;-81
2023/04/17 04:48:03;;;;;;;2.90;2.05;;;9.60;99.90;;;;;;5115208;28;20189;-82
2023/04/17 04:50:30;;;;;;;0.60;0.60;;;9.50;99.90;;;;;;5115243;28;20291;-80
2023/04/17 04:52:58;;;;;;;2.55;2.35;;;9.60;99.90;;;;;;5119659;28;20189;-81
2023/04/17 04:55:25;;;;;;;0.50;0.50;;;9.50;99.90;;;;;;5132653;28;20279;-81
2023/04/17 04:57:53;;;;;;;2.35;1.50;;;9.50;99.90;;;;;;5132124;28;20200;-81
2023/04/17 05:00:20;;;;;;;0.73;0.43;;;9.40;99.90;;;;;;5133636;28;20283;-82
2023/04/17 05:02:47;;;;;;;2.67;2.03;;;9.40;99.90;;;;;;5121941;28;20232;-79
2023/04/17 05:05:14;;;;;;;0.50;0.50;;;9.50;99.90;;;;;;5116343;28;20189;-79
2023/04/17 05:07:41;;;;;;;2.17;1.90;;;9.50;99.90;;;;;;5116288;28;20197;-79
2023/04/17 05:10:10;;;;;;;1.15;1.15;;;9.50;99.90;;;;;;5129690;27;20204;-79
2023/04/17 05:12:36;;;;;;;0.50;0.40;;;9.60;99.90;;;;;;5137226;27;20722;-81
2023/04/17 05:15:04;;;;;;;1.17;1.17;;;9.60;99.90;;;;;;5136739;27;20355;-80
2023/04/17 05:17:30;;;;;;;0.50;0.40;;;9.60;99.90;;;;;;5136924;27;20631;-81
2023/04/17 05:19:57;;;;;;;0.50;0.40;;;9.60;99.90;;;;;;5124455;27;20243;-81
2023/04/17 05:22:26;;;;;;;0.55;0.50;;;9.60;99.90;;;;;;5115985;28;20559;-80
2023/04/17 05:24:53;;;;;;;0.50;0.40;;;9.60;99.90;;;;;;5116772;28;20199;-78
2023/04/17 05:27:21;;;;;;;0.60;0.55;;;9.60;99.90;;;;;;5116542;28;20284;-81
2023/04/17 05:29:48;;;;;;;0.88;0.88;;;9.60;99.90;;;;;;5116787;28;20243;-81
2023/04/17 05:32:15;;;;;;;11.57;6.50;;;9.60;99.90;;;;;;5116339;28;20232;-80
2023/04/17 05:34:41;;;;;;;2.58;2.38;;;9.60;99.90;;;;;;5113660;27;20228;-81
2023/04/17 05:37:08;;;;;;;0.50;0.40;;;9.60;99.90;;;;;;5120260;27;20560;-80
2023/04/17 05:39:35;;;;;;;0.70;0.70;;;9.50;99.90;;;;;;5123510;27;20257;-79
2023/04/17 05:42:02;;;;;;;0.50;0.40;;;9.60;99.90;;;;;;5111249;27;20219;-80
2023/04/17 05:44:31;;;;;;;0.70;0.60;;;9.50;99.90;;;;;;5128063;27;20231;-80
2023/04/17 05:46:58;;;;;;;0.57;0.55;;;9.40;99.90;;;;;;5123721;27;20545;-80
2023/04/17 05:49:26;;;;;;;3.08;2.38;;;9.40;99.90;;;;;;5121357;27;20237;-80
2023/04/17 05:51:53;;;;;;;0.50;0.40;;;9.40;99.90;;;;;;5119370;27;20284;-83
2023/04/17 05:54:20;;;;;;;0.70;0.70;;;9.40;99.90;;;;;;5127253;27;20248;-80
2023/04/17 05:56:48;;;;;;;1.63;1.52;;;9.50;99.90;;;;;;5115050;27;20284;-80
2023/04/17 05:59:15;;;;;;;0.80;0.75;;;9.60;99.90;;;;;;5114314;28;20694;-81
2023/04/17 06:01:43;;;;;;;0.77;0.77;;;9.50;99.90;;;;;;5114333;28;20295;-80
2023/04/17 06:04:10;;;;;;;9.40;2.35;;;9.50;99.90;;;;;;5114081;28;20196;-81
2023/04/17 06:06:37;;;;;;;0.50;0.40;;;9.60;99.90;;;;;;5114394;28;20261;-80
2023/04/17 06:09:04;;;;;;;0.98;0.98;;;9.60;99.90;;;;;;5111687;28;20191;-81
2023/04/17 06:11:31;;;;;;;3.67;2.67;;;9.60;99.90;;;;;;5114159;28;20254;-80
2023/04/17 06:13:58;;;;;;;3.45;1.77;;;9.60;99.90;;;;;;5114018;28;20201;-81
2023/04/17 06:16:25;;;;;;;4.55;4.15;;;9.60;99.90;;;;;;5113360;28;20202;-81
2023/04/17 06:18:53;;;;;;;0.70;0.70;;;9.60;99.90;;;;;;5114039;28;20193;-82
2023/04/17 06:21:21;;;;;;;2.08;0.88;;;9.60;99.90;;;;;;5114726;28;20311;-81
2023/04/17 06:23:48;;;;;;;0.57;0.50;;;9.60;99.90;;;;;;5114122;28;20196;-79
2023/04/17 06:26:15;;;;;;;0.50;0.40;;;9.70;99.90;;;;;;5108034;28;20619;-84
2023/04/17 06:28:41;;;;;;;2.60;2.38;;;9.70;99.90;;;;;;5121838;28;20230;-83
2023/04/17 06:31:08;;;;;;;7.68;6.18;;;9.50;99.90;;;;;;5127592;28;20299;-83
2023/04/17 06:33:35;;;;;;;2.17;2.08;;;9.50;99.90;;;;;;5118240;28;20195;-84
2023/04/17 06:36:03;;;;;;;2.80;2.25;;;9.60;99.90;;;;;;5114786;28;20197;-81
2023/04/17 06:38:30;;;;;;;0.85;0.85;;;9.60;99.90;;;;;;5115166;28;20677;-83
2023/04/17 06:40:57;;;;;;;11.98;7.15;;;9.70;99.90;;;;;;5123756;27;20255;-84
2023/04/17 06:43:24;;;;;;;0.50;0.40;;;9.70;99.90;;;;;;5122339;28;20280;-81
2023/04/17 06:45:51;;;;;;;1.02;0.93;;;9.70;99.90;;;;;;5132172;28;20191;-81
2023/04/17 06:48:17;;;;;;;1.83;1.73;;;9.70;99.90;;;;;;5134860;28;20278;-81
2023/04/17 06:50:44;;;;;;;0.50;0.40;;;9.60;99.90;;;;;;5135430;28;20222;-83
2023/04/17 06:53:12;;;;;;;0.50;0.40;;;9.60;99.90;;;;;;5135298;27;20192;-82
2023/04/17 06:55:39;;;;;;;3.47;2.92;;;9.60;99.90;;;;;;5136361;27;20788;-82
2023/04/17 06:58:08;;;;;;;1.30;0.85;;;9.60;99.90;;;;;;5136942;27;20219;-82
2023/04/17 07:00:35;;;;;;;13.70;6.65;;;9.60;99.90;;;;;;5138874;27;20319;-81
2023/04/17 07:03:02;;;;;;;0.73;0.70;;;9.60;99.90;;;;;;5140150;27;20282;-80
2023/04/17 07:05:29;;;;;;;2.45;1.48;;;9.70;99.90;;;;;;5125472;27;20224;-80
2023/04/17 07:07:56;;;;;;;1.80;1.08;;;9.70;99.90;;;;;;5120292;28;20667;-80
2023/04/17 07:10:24;;;;;;;1.90;1.80;;;9.70;99.90;;;;;;5126605;27;20261;-81
2023/04/17 07:12:51;;;;;;;1.70;1.15;;;9.80;99.90;;;;;;5140635;27;20255;-83
2023/04/17 07:15:18;;;;;;;3.97;3.60;;;9.70;99.90;;;;;;5140932;27;20302;-83
2023/04/17 07:17:45;;;;;;;1.65;1.55;;;9.80;99.90;;;;;;5139992;27;20643;-83
2023/04/17 07:20:12;;;;;;;0.93;0.85;;;9.70;99.90;;;;;;5140362;27;20216;-83
2023/04/17 07:22:39;;;;;;;0.50;0.40;;;9.80;99.90;;;;;;5140157;27;20192;-81
2023/04/17 07:25:07;;;;;;;2.30;2.20;;;9.90;99.90;;;;;;5137499;27;20195;-82
2023/04/17 07:27:37;;;;;;;2.08;1.98;;;10.00;99.90;;;;;;5119956;28;20283;-83
2023/04/17 07:30:05;;;;;;;1.90;1.48;;;10.20;99.90;;;;;;5119457;28;20683;-83
2023/04/17 07:32:32;;;;;;;1.50;1.50;;;10.30;99.90;;;;;;5119575;27;20712;-81
2023/04/17 07:34:59;;;;;;;0.50;0.50;;;10.40;99.90;;;;;;5120313;28;20223;-82
2023/04/17 07:37:26;;;;;;;0.50;0.40;;;10.50;99.90;;;;;;5119733;27;20606;-82
2023/04/17 07:39:53;;;;;;;2.05;1.95;;;10.60;99.90;;;;;;5119058;28;20275;-83
2023/04/17 07:42:20;;;;;;;1.13;0.95;;;10.60;99.90;;;;;;5118607;28;20521;-82
2023/04/17 07:44:48;;;;;;;0.50;0.40;;;10.80;99.90;;;;;;5119037;28;20219;-83
2023/04/17 07:47:15;;;;;;;0.73;0.73;;;10.90;99.90;;;;;;5136993;27;20279;-80
2023/04/17 07:49:47;;;;;;;0.60;0.60;;;11.10;99.90;;;;;;5143574;27;20302;-82
2023/04/17 07:52:16;;;;;;;0.50;0.40;;;11.10;99.90;;;;;;5142522;27;20568;-81
2023/04/17 07:54:43;;;;;;;1.63;1.55;;;11.20;99.90;;;;;;5142196;27;20192;-83
2023/04/17 07:57:10;;;;;;;0.95;0.90;;;11.20;99.90;;;;;;5113550;27;20189;-82
2023/04/17 07:59:37;;;;;;;1.00;1.00;;;11.30;99.90;;;;;;5138024;27;20230;-83
2023/04/17 08:02:05;;;;;;;0.70;0.70;;;11.40;99.90;;;;;;5140150;27;20865;-84
2023/04/17 08:04:32;;;;;;;0.50;0.50;;;11.50;99.90;;;;;;5144646;27;20713;-82
2023/04/17 08:06:59;;;;;;;2.50;2.30;;;11.50;99.90;;;;;;5144026;27;20192;-83
2023/04/17 08:09:26;;;;;;;0.60;0.52;;;11.40;99.90;;;;;;5143740;27;20286;-81
2023/04/17 08:11:53;;;;;;;1.33;1.30;;;11.40;99.90;;;;;;5140065;27;20631;-82
2023/04/17 08:14:20;;;;;;;4.53;4.03;;;11.60;99.90;;;;;;5140393;27;20203;-82
2023/04/17 08:16:47;;;;;;;0.52;0.45;;;11.60;99.90;;;;;;5139142;27;20206;-81
2023/04/17 08:19:16;;;;;;;0.60;0.60;;;11.90;99.90;;;;;;5141470;27;20188;-82
2023/04/17 08:21:42;;;;;;;1.17;1.07;;;11.90;99.90;;;;;;5140914;27;20298;-83
2023/04/17 08:24:09;;;;;;;6.80;1.95;;;12.10;99.90;;;;;;5139860;27;20433;-81
2023/04/17 08:26:36;;;;;;;0.50;0.40;;;11.90;99.90;;;;;;5139572;27;20196;-83
2023/04/17 08:29:03;;;;;;;1.53;1.40;;;12.00;99.90;;;;;;5140096;27;20283;-82
2023/04/17 08:31:30;;;;;;;2.05;1.02;;;12.10;99.90;;;;;;5141304;27;20461;-81
2023/04/17 08:33:59;;;;;;;13.40;5.75;;;12.10;99.90;;;;;;5140389;27;20280;-83
2023/04/17 08:36:27;;;;;;;0.50;0.40;;;12.30;99.90;;;;;;5139993;27;20191;-82
2023/04/17 08:38:55;;;;;;;0.50;0.40;;;12.40;99.90;;;;;;5139624;27;20287;-81
2023/04/17 08:41:26;;;;;;;0.50;0.40;;;12.50;99.90;;;;;;5140907;27;20219;-79
2023/04/17 08:43:56;;;;;;;1.00;0.60;;;12.40;99.90;;;;;;5141733;27;20490;-83
2023/04/17 08:46:23;;;;;;;1.00;1.00;;;12.40;99.90;;;;;;5139084;27;20192;-82
2023/04/17 08:48:50;;;;;;;1.70;1.60;;;12.30;99.90;;;;;;5129531;27;20444;-82
2023/04/17 08:51:17;;;;;;;0.60;0.60;;;12.30;99.90;;;;;;5117381;28;20526;-82
2023/04/17 08:53:45;;;;;;;0.50;0.40;;;12.50;99.90;;;;;;5118823;28;20204;-81
2023/04/17 08:56:12;;;;;;;0.83;0.83;;;12.70;99.90;;;;;;5118415;28;20731;-82
2023/04/17 08:58:39;;;;;;;5.90;3.30;;;12.90;99.90;;;;;;5117626;28;20439;-82
2023/04/17 09:01:10;;;;;;;4.53;4.18;;;12.80;99.90;;;;;;5116664;28;20486;-82
2023/04/17 09:03:41;;;;;;;2.35;2.15;;;12.70;99.90;;;;;;5117512;28;20287;-82
2023/04/17 09:06:09;;;;;;;0.50;0.40;;;13.00;99.90;;;;;;5118332;28;20192;-82
2023/04/17 09:08:36;;;;;;;5.17;4.87;;;13.30;99.90;;;;;;5118269;28;20471;-81
2023/04/17 09:11:05;;;;;;;1.23;1.23;;;13.70;99.90;;;;;;5117141;28;20545;-83
2023/04/17 09:13:40;;;;;;;1.80;1.37;;;14.00;99.90;;;;;;5117572;28;20441;-83
2023/04/17 09:16:09;;;;;;;1.17;0.93;;;14.40;99.90;;;;;;5118491;28;20465;-83
2023/04/17 09:18:37;;;;;;;2.10;2.00;;;14.80;99.90;;;;;;5117304;28;20447;-82
2023/04/17 09:21:05;;;;;;;0.50;0.30;;;15.00;99.90;;;;;;5117216;28;20480;-83
2023/04/17 09:23:47;;;;;;;0.50;0.40;;;15.20;99.90;;;;;;5119090;28;20442;-83
2023/04/17 09:26:17;;;;;;;0.80;0.80;;;15.20;99.90;;;;;;5116845;28;20551;-83
2023/04/17 09:29:02;;;;;;;0.50;0.50;;;15.10;99.90;;;;;;5117080;28;20430;-83
2023/04/17 09:31:30;;;;;;;0.60;0.57;;;15.10;99.90;;;;;;5130313;27;20446;-83
2023/04/17 09:33:58;;;;;;;0.63;0.63;;;15.30;99.90;;;;;;5137558;27;20436;-82
2023/04/17 09:36:29;;;;;;;0.70;0.70;;;15.40;99.90;;;;;;5136684;27;20464;-83
2023/04/17 09:38:58;;;;;;;4.53;1.37;;;15.90;99.90;;;;;;5137160;27;20649;-83
2023/04/17 09:41:27;;;;;;;4.77;3.60;;;16.00;99.90;;;;;;5136750;27;20497;-82
2023/04/17 09:43:55;;;;;;;0.50;0.30;;;16.00;99.90;;;;;;5136531;27;20461;-83
2023/04/17 09:46:36;;;;;;;0.50;0.40;;;16.40;99.90;;;;;;5136897;27;20952;-83
2023/04/17 09:49:08;;;;;;;0.60;0.60;;;16.70;99.90;;;;;;5137297;27;20843;-83
2023/04/17 09:51:35;;;;;;;0.50;0.50;;;17.30;99.90;;;;;;5137135;27;20454;-83
2023/04/17 09:54:05;;;;;;;1.07;1.00;;;18.10;99.90;;;;;;5136621;27;20437;-82
2023/04/17 09:56:34;;;;;;;3.63;2.53;;;19.00;99.90;;;;;;5137029;27;20434;-83
2023/04/17 09:59:03;;;;;;;1.43;0.70;;;19.60;99.90;;;;;;5136138;27;20494;-83
2023/04/17 10:01:31;;;;;;;0.50;0.40;;;20.50;94.90;;;;;;5136074;27;20922;-82
2023/04/17 10:03:58;;;;;;;0.50;0.30;;;20.40;93.00;;;;;;5136321;27;20444;-84
2023/04/17 10:06:26;;;;;;;0.50;0.30;;;20.50;89.80;;;;;;5136262;27;20932;-84
2023/04/17 10:08:53;;;;;;;3.50;3.20;;;21.00;89.40;;;;;;5136031;27;20441;-80
2023/04/17 10:11:22;;;;;;;1.70;1.60;;;20.90;84.90;;;;;;5135555;27;20817;-83
2023/04/17 10:13:57;;;;;;;0.57;0.43;;;21.20;88.80;;;;;;5136081;28;20441;-82
2023/04/17 10:16:34;;;;;;;0.50;0.40;;;22.00;82.60;;;;;;5135643;28;20432;-83
2023/04/17 10:19:26;;;;;;;0.60;0.50;;;23.50;74.60;;;;;;5135123;28;20445;-83
2023/04/17 10:22:31;;;;;;;0.50;0.40;;;24.20;70.10;;;;;;5135217;27;20469;-83
2023/04/17 10:25:17;;;;;;;1.50;0.93;;;24.30;65.40;;;;;;5135111;27;20445;-82
2023/04/17 10:27:45;;;;;;;0.87;0.60;;;24.40;62.60;;;;;;5135280;27;20958;-81
2023/04/17 10:30:15;;;;;;;0.50;0.30;;;24.50;61.70;;;;;;5134103;28;20900;-81
2023/04/17 10:32:42;;;;;;;0.90;0.90;;;24.60;63.60;;;;;;5135242;27;20870;-83
2023/04/17 10:35:35;;;;;;;0.50;0.30;;;25.00;61.90;;;;;;5137142;27;20445;-82
2023/04/17 10:38:06;;;;;;;0.50;0.40;;;24.90;60.50;;;;;;5138800;27;20510;-79
2023/04/17 10:40:35;;;;;;;1.00;1.00;;;23.80;60.90;;;;;;5138866;27;21014;-83
2023/04/17 10:43:04;;;;;;;3.47;3.13;;;23.50;60.50;;;;;;5138295;27;20433;-82
2023/04/17 10:45:53;;;;;;;1.63;1.53;;;22.40;60.70;;;;;;5138240;27;20441;-82
2023/04/17 10:48:21;;;;;;;0.60;0.50;;;22.00;64.40;;;;;;5110049;28;20434;-83
2023/04/17 10:50:48;;;;;;;0.50;0.40;;;22.40;65.40;;;;;;5134018;27;20445;-83
2023/04/17 10:53:40;;;;;;;0.60;0.50;;;23.00;62.60;;;;;;5139003;27;20528;-83
2023/04/17 10:56:07;;;;;;;0.60;0.40;;;23.20;64.00;;;;;;5138950;27;20441;-82
2023/04/17 10:58:38;;;;;;;0.97;0.97;;;23.60;61.80;;;;;;5139284;27;20440;-82
2023/04/17 11:01:10;;;;;;;0.50;0.30;;;24.40;65.40;;;;;;5138848;27;20477;-83
2023/04/17 11:03:38;;;;;;;0.70;0.60;;;25.00;59.30;;;;;;5133493;27;20438;-82
2023/04/17 11:06:07;;;;;;;1.00;0.90;;;25.00;58.30;;;;;;5117942;28;20814;-83
2023/04/17 11:08:34;;;;;;;2.57;0.93;;;25.00;56.80;;;;;;5117484;27;20453;-82
2023/04/17 11:11:01;;;;;;;0.70;0.63;;;24.90;54.90;;;;;;5117967;28;20484;-82
2023/04/17 11:13:33;;;;;;;1.87;1.40;;;24.50;55.90;;;;;;5118046;28;20442;-80
2023/04/17 11:16:00;;;;;;;0.60;0.40;;;24.80;56.20;;;;;;5117865;28;20438;-82
2023/04/17 11:18:28;;;;;;;0.50;0.30;;;25.00;57.50;;;;;;5117747;28;20442;-82
2023/04/17 11:20:56;;;;;;;1.13;1.03;;;25.30;57.40;;;;;;5117586;28;20469;-81
2023/04/17 11:23:22;;;;;;;0.50;0.50;;;25.30;53.40;;;;;;5112196;28;20482;-79
2023/04/17 11:25:49;;;;;;;1.23;0.70;;;24.60;54.50;;;;;;5119662;28;20466;-83
2023/04/17 11:28:16;;;;;;;0.50;0.30;;;24.10;55.40;;;;;;5118549;28;21012;-83
2023/04/17 11:30:44;;;;;;;0.50;0.37;;;23.70;56.90;;;;;;5119249;28;20461;-83
2023/04/17 11:33:12;;;;;;;0.80;0.47;;;23.00;58.70;;;;;;5118340;28;20437;-83
2023/04/17 11:35:41;;;;;;;0.90;0.90;;;22.20;59.30;;;;;;5132089;27;20436;-82
2023/04/17 11:38:11;;;;;;;0.60;0.50;;;21.40;59.00;;;;;;5137424;27;20444;-84
2023/04/17 11:40:46;;;;;;;0.50;0.50;;;20.90;59.50;;;;;;5137604;27;20465;-82
2023/04/17 11:43:13;;;;;;;0.50;0.40;;;20.30;60.10;;;;;;5138345;27;20516;-83
2023/04/17 11:45:42;;;;;;;0.67;0.67;;;19.70;60.00;;;;;;5137598;27;20567;-81
2023/04/17 11:48:11;;;;;;;1.10;0.83;;;20.60;62.10;;;;;;5136259;27;20436;-83
2023/04/17 11:50:41;;;;;;;1.20;1.10;;;22.00;63.60;;;;;;5116879;28;20446;-81
2023/04/17 11:53:08;;;;;;;0.60;0.50;;;22.60;59.00;;;;;;5117181;28;20513;-83
2023/04/17 11:55:35;;;;;;;1.17;1.07;;;23.50;57.10;;;;;;5116921;28;20449;-81
2023/04/17 11:58:04;;;;;;;0.60;0.60;;;24.00;56.60;;;;;;5116384;28;20430;-83
2023/04/17 12:00:31;;;;;;;3.40;0.83;;;24.40;55.80;;;;;;5116446;28;20510;-81
2023/04/17 12:03:00;;;;;;;0.70;0.70;;;24.40;56.40;;;;;;5116647;28;20564;-83
2023/04/17 12:05:28;;;;;;;2.43;0.87;;;25.00;54.20;;;;;;5117143;28;20437;-82
2023/04/17 12:08:04;;;;;;;1.60;1.50;;;25.90;54.40;;;;;;5120089;27;20478;-81
2023/04/17 12:10:42;;;;;;;0.50;0.40;;;25.20;52.80;;;;;;5112628;27;20485;-81
2023/04/17 12:13:10;;;;;;;0.97;0.97;;;25.70;53.30;;;;;;5115257;27;20439;-81
2023/04/17 12:15:37;;;;;;;0.93;0.83;;;25.50;52.60;;;;;;5132204;27;20462;-82
2023/04/17 12:18:05;;;;;;;0.50;0.30;;;25.00;52.00;;;;;;5131546;27;20520;-81
2023/04/17 12:20:36;;;;;;;0.80;0.80;;;24.40;52.40;;;;;;5114561;27;20611;-83
2023/04/17 12:23:05;;;;;;;0.50;0.40;;;24.20;52.80;;;;;;5128054;27;20809;-82
2023/04/17 12:25:33;;;;;;;0.50;0.30;;;24.60;52.30;;;;;;5136477;27;20828;-78
2023/04/17 12:28:03;;;;;;;1.40;0.90;;;25.10;52.70;;;;;;5136166;27;20434;-80
2023/04/17 12:30:30;;;;;;;2.10;2.00;;;24.90;52.80;;;;;;5108714;28;20546;-80
2023/04/17 12:32:57;;;;;;;0.60;0.60;;;24.90;51.90;;;;;;5116037;28;20435;-81
2023/04/17 12:35:24;;;;;;;1.37;0.93;;;24.90;52.40;;;;;;5115977;28;20563;-82
2023/04/17 12:37:51;;;;;;;0.60;0.50;;;24.90;53.00;;;;;;5116002;28;20438;-83
2023/04/17 12:40:21;;;;;;;0.90;0.90;;;24.30;52.30;;;;;;5115592;28;20509;-81
2023/04/17 12:42:48;;;;;;;0.90;0.53;;;24.40;52.80;;;;;;5115604;28;20474;-82
2023/04/17 12:45:15;;;;;;;0.70;0.50;;;24.20;54.70;;;;;;5115363;28;20443;-81
2023/04/17 12:47:43;;;;;;;1.33;1.23;;;24.00;52.60;;;;;;5115028;28;20456;-82
2023/04/17 12:50:11;;;;;;;0.50;0.30;;;23.20;54.10;;;;;;5115819;28;20541;-83
2023/04/17 12:52:38;;;;;;;0.63;0.63;;;23.80;53.40;;;;;;5115766;28;20879;-82
2023/04/17 12:55:06;;;;;;;1.27;1.17;;;23.90;54.90;;;;;;5114906;28;20445;-79